sensor_id;sensor_type;location;lat;lon;timestamp;P1;durP1;ratioP1;P2;durP2;ratioP2
39074;SDS011;24826;52.070;20.970;2022-10-31T00:00:22;27.42;;;17.92;;
39074;SDS011;24826;52.070;20.970;2022-10-31T00:03:26;27.98;;;18.13;;
39074;SDS011;24826;52.070;20.970;2022-10-31T00:06:10;26.98;;;17.95;;
39074;SDS011;24826;52.070;20.970;2022-10-31T00:08:55;27.85;;;18.13;;
39074;SDS011;24826;52.070;20.970;2022-10-31T00:11:41;29.23;;;18.50;;
39074;SDS011;24826;52.070;20.970;2022-10-31T00:14:26;27.35;;;19.15;;
39074;SDS011;24826;52.070;20.970;2022-10-31T00:17:10;27.90;;;18.63;;
39074;SDS011;24826;52.070;20.970;2022-10-31T00:19:55;28.90;;;18.75;;
39074;SDS011;24826;52.070;20.970;2022-10-31T00:22:39;30.75;;;19.33;;
39074;SDS011;24826;52.070;20.970;2022-10-31T00:25:24;33.95;;;18.30;;
39074;SDS011;24826;52.070;20.970;2022-10-31T00:28:08;28.20;;;18.67;;
39074;SDS011;24826;52.070;20.970;2022-10-31T00:30:54;30.02;;;18.80;;
39074;SDS011;24826;52.070;20.970;2022-10-31T00:33:42;27.05;;;18.70;;
39074;SDS011;24826;52.070;20.970;2022-10-31T00:36:27;28.83;;;18.15;;
39074;SDS011;24826;52.070;20.970;2022-10-31T00:39:11;27.98;;;19.25;;
39074;SDS011;24826;52.070;20.970;2022-10-31T00:41:55;28.58;;;19.83;;
39074;SDS011;24826;52.070;20.970;2022-10-31T00:44:40;29.98;;;21.00;;
39074;SDS011;24826;52.070;20.970;2022-10-31T00:47:24;29.55;;;20.38;;
39074;SDS011;24826;52.070;20.970;2022-10-31T00:50:08;33.83;;;22.70;;
39074;SDS011;24826;52.070;20.970;2022-10-31T00:52:53;32.28;;;22.40;;
39074;SDS011;24826;52.070;20.970;2022-10-31T00:55:37;37.40;;;23.58;;
39074;SDS011;24826;52.070;20.970;2022-10-31T00:58:21;35.28;;;22.02;;
39074;SDS011;24826;52.070;20.970;2022-10-31T01:01:05;34.60;;;21.50;;
39074;SDS011;24826;52.070;20.970;2022-10-31T01:03:50;29.90;;;21.42;;
39074;SDS011;24826;52.070;20.970;2022-10-31T01:06:34;32.03;;;21.63;;
39074;SDS011;24826;52.070;20.970;2022-10-31T01:09:19;27.85;;;20.33;;
39074;SDS011;24826;52.070;20.970;2022-10-31T01:12:03;35.88;;;20.67;;
39074;SDS011;24826;52.070;20.970;2022-10-31T01:14:47;36.58;;;22.50;;
39074;SDS011;24826;52.070;20.970;2022-10-31T01:17:32;33.90;;;22.77;;
39074;SDS011;24826;52.070;20.970;2022-10-31T01:20:17;36.72;;;23.25;;
39074;SDS011;24826;52.070;20.970;2022-10-31T01:23:02;33.90;;;22.30;;
39074;SDS011;24826;52.070;20.970;2022-10-31T01:25:46;32.50;;;22.50;;
39074;SDS011;24826;52.070;20.970;2022-10-31T01:28:30;36.10;;;23.20;;
39074;SDS011;24826;52.070;20.970;2022-10-31T01:31:15;34.55;;;24.55;;
39074;SDS011;24826;52.070;20.970;2022-10-31T01:34:00;34.42;;;23.15;;
39074;SDS011;24826;52.070;20.970;2022-10-31T01:36:46;36.20;;;23.90;;
39074;SDS011;24826;52.070;20.970;2022-10-31T01:39:35;39.15;;;24.50;;
39074;SDS011;24826;52.070;20.970;2022-10-31T01:42:19;36.67;;;23.10;;
39074;SDS011;24826;52.070;20.970;2022-10-31T01:45:05;35.55;;;22.95;;
39074;SDS011;24826;52.070;20.970;2022-10-31T01:47:53;39.40;;;23.77;;
39074;SDS011;24826;52.070;20.970;2022-10-31T01:50:38;35.42;;;23.20;;
39074;SDS011;24826;52.070;20.970;2022-10-31T01:53:23;39.15;;;24.08;;
39074;SDS011;24826;52.070;20.970;2022-10-31T01:56:08;34.72;;;24.08;;
39074;SDS011;24826;52.070;20.970;2022-10-31T01:58:53;37.47;;;25.00;;
39074;SDS011;24826;52.070;20.970;2022-10-31T02:01:40;41.70;;;25.25;;
39074;SDS011;24826;52.070;20.970;2022-10-31T02:04:24;40.33;;;24.67;;
39074;SDS011;24826;52.070;20.970;2022-10-31T02:07:10;35.25;;;23.45;;
39074;SDS011;24826;52.070;20.970;2022-10-31T02:09:58;38.80;;;25.45;;
39074;SDS011;24826;52.070;20.970;2022-10-31T02:12:43;36.47;;;23.45;;
39074;SDS011;24826;52.070;20.970;2022-10-31T02:15:28;34.80;;;22.10;;
39074;SDS011;24826;52.070;20.970;2022-10-31T02:18:14;36.83;;;22.08;;
39074;SDS011;24826;52.070;20.970;2022-10-31T02:21:15;35.08;;;21.77;;
39074;SDS011;24826;52.070;20.970;2022-10-31T02:24:17;33.63;;;22.17;;
39074;SDS011;24826;52.070;20.970;2022-10-31T02:27:21;30.87;;;22.33;;
39074;SDS011;24826;52.070;20.970;2022-10-31T02:30:18;31.80;;;21.08;;
39074;SDS011;24826;52.070;20.970;2022-10-31T02:33:41;35.30;;;22.08;;
39074;SDS011;24826;52.070;20.970;2022-10-31T02:42:17;31.90;;;21.45;;
39074;SDS011;24826;52.070;20.970;2022-10-31T02:45:13;31.25;;;21.73;;
39074;SDS011;24826;52.070;20.970;2022-10-31T02:48:15;28.38;;;20.25;;
39074;SDS011;24826;52.070;20.970;2022-10-31T02:51:03;31.55;;;20.38;;
39074;SDS011;24826;52.070;20.970;2022-10-31T02:53:48;31.98;;;20.92;;
39074;SDS011;24826;52.070;20.970;2022-10-31T02:56:32;27.05;;;19.40;;
39074;SDS011;24826;52.070;20.970;2022-10-31T02:59:17;32.33;;;19.38;;
39074;SDS011;24826;52.070;20.970;2022-10-31T03:11:18;25.33;;;17.95;;
39074;SDS011;24826;52.070;20.970;2022-10-31T03:14:10;27.08;;;18.83;;
39074;SDS011;24826;52.070;20.970;2022-10-31T03:17:02;26.40;;;18.30;;
39074;SDS011;24826;52.070;20.970;2022-10-31T03:19:51;28.33;;;19.70;;
39074;SDS011;24826;52.070;20.970;2022-10-31T03:22:39;26.17;;;18.42;;
39074;SDS011;24826;52.070;20.970;2022-10-31T03:25:26;28.33;;;18.70;;
39074;SDS011;24826;52.070;20.970;2022-10-31T03:28:11;26.33;;;18.35;;
39074;SDS011;24826;52.070;20.970;2022-10-31T03:30:56;26.88;;;17.98;;
39074;SDS011;24826;52.070;20.970;2022-10-31T03:33:42;27.27;;;18.75;;
39074;SDS011;24826;52.070;20.970;2022-10-31T03:36:32;29.48;;;20.05;;
39074;SDS011;24826;52.070;20.970;2022-10-31T03:39:19;26.77;;;18.73;;
39074;SDS011;24826;52.070;20.970;2022-10-31T03:42:07;30.40;;;19.52;;
39074;SDS011;24826;52.070;20.970;2022-10-31T03:48:05;29.10;;;19.60;;
39074;SDS011;24826;52.070;20.970;2022-10-31T03:53:43;30.87;;;19.93;;
39074;SDS011;24826;52.070;20.970;2022-10-31T03:56:41;30.65;;;20.13;;
39074;SDS011;24826;52.070;20.970;2022-10-31T03:59:32;30.73;;;20.90;;
39074;SDS011;24826;52.070;20.970;2022-10-31T04:02:22;32.92;;;20.98;;
39074;SDS011;24826;52.070;20.970;2022-10-31T04:05:10;31.60;;;20.70;;
39074;SDS011;24826;52.070;20.970;2022-10-31T04:07:57;28.55;;;19.77;;
39074;SDS011;24826;52.070;20.970;2022-10-31T04:10:43;33.33;;;20.25;;
39074;SDS011;24826;52.070;20.970;2022-10-31T04:13:31;34.38;;;22.67;;
39074;SDS011;24826;52.070;20.970;2022-10-31T04:16:19;33.17;;;20.80;;
39074;SDS011;24826;52.070;20.970;2022-10-31T04:19:05;30.83;;;20.58;;
39074;SDS011;24826;52.070;20.970;2022-10-31T04:21:50;33.97;;;21.65;;
39074;SDS011;24826;52.070;20.970;2022-10-31T04:24:35;34.80;;;21.30;;
39074;SDS011;24826;52.070;20.970;2022-10-31T04:27:22;33.92;;;22.35;;
39074;SDS011;24826;52.070;20.970;2022-10-31T04:30:07;32.60;;;22.05;;
39074;SDS011;24826;52.070;20.970;2022-10-31T04:32:51;34.67;;;21.85;;
39074;SDS011;24826;52.070;20.970;2022-10-31T04:35:35;36.70;;;21.42;;
39074;SDS011;24826;52.070;20.970;2022-10-31T04:38:19;34.83;;;20.48;;
39074;SDS011;24826;52.070;20.970;2022-10-31T04:41:04;33.25;;;21.45;;
39074;SDS011;24826;52.070;20.970;2022-10-31T04:43:48;30.52;;;20.15;;
39074;SDS011;24826;52.070;20.970;2022-10-31T04:46:32;30.40;;;20.88;;
39074;SDS011;24826;52.070;20.970;2022-10-31T04:49:16;30.48;;;19.90;;
39074;SDS011;24826;52.070;20.970;2022-10-31T04:52:01;31.63;;;19.60;;
39074;SDS011;24826;52.070;20.970;2022-10-31T04:54:45;29.92;;;19.58;;
39074;SDS011;24826;52.070;20.970;2022-10-31T04:57:30;28.75;;;19.40;;
39074;SDS011;24826;52.070;20.970;2022-10-31T05:00:15;27.67;;;19.27;;
39074;SDS011;24826;52.070;20.970;2022-10-31T05:03:02;30.80;;;18.58;;
39074;SDS011;24826;52.070;20.970;2022-10-31T05:05:46;27.80;;;19.65;;
39074;SDS011;24826;52.070;20.970;2022-10-31T05:08:30;31.52;;;18.48;;
39074;SDS011;24826;52.070;20.970;2022-10-31T05:11:14;29.70;;;17.83;;
39074;SDS011;24826;52.070;20.970;2022-10-31T05:13:59;26.50;;;18.23;;
39074;SDS011;24826;52.070;20.970;2022-10-31T05:16:43;26.52;;;18.95;;
39074;SDS011;24826;52.070;20.970;2022-10-31T05:19:27;32.80;;;19.40;;
39074;SDS011;24826;52.070;20.970;2022-10-31T05:22:11;27.38;;;17.98;;
39074;SDS011;24826;52.070;20.970;2022-10-31T05:24:56;27.27;;;18.02;;
39074;SDS011;24826;52.070;20.970;2022-10-31T05:27:40;31.23;;;18.55;;
39074;SDS011;24826;52.070;20.970;2022-10-31T05:30:27;30.95;;;18.67;;
39074;SDS011;24826;52.070;20.970;2022-10-31T05:33:13;29.30;;;18.08;;
39074;SDS011;24826;52.070;20.970;2022-10-31T05:35:57;27.55;;;18.35;;
39074;SDS011;24826;52.070;20.970;2022-10-31T05:38:41;29.35;;;17.75;;
39074;SDS011;24826;52.070;20.970;2022-10-31T05:41:26;27.08;;;17.60;;
39074;SDS011;24826;52.070;20.970;2022-10-31T05:44:10;26.40;;;17.70;;
39074;SDS011;24826;52.070;20.970;2022-10-31T05:46:54;26.33;;;17.33;;
39074;SDS011;24826;52.070;20.970;2022-10-31T05:49:38;26.85;;;17.40;;
39074;SDS011;24826;52.070;20.970;2022-10-31T05:52:23;27.23;;;17.50;;
39074;SDS011;24826;52.070;20.970;2022-10-31T05:55:07;27.20;;;17.35;;
39074;SDS011;24826;52.070;20.970;2022-10-31T05:57:52;26.83;;;17.08;;
39074;SDS011;24826;52.070;20.970;2022-10-31T06:00:37;26.60;;;16.98;;
39074;SDS011;24826;52.070;20.970;2022-10-31T06:03:21;25.83;;;17.50;;
39074;SDS011;24826;52.070;20.970;2022-10-31T06:06:05;24.27;;;16.83;;
39074;SDS011;24826;52.070;20.970;2022-10-31T06:08:50;27.90;;;16.80;;
39074;SDS011;24826;52.070;20.970;2022-10-31T06:11:34;25.55;;;17.02;;
39074;SDS011;24826;52.070;20.970;2022-10-31T06:14:19;24.15;;;16.63;;
39074;SDS011;24826;52.070;20.970;2022-10-31T06:17:03;22.70;;;15.65;;
39074;SDS011;24826;52.070;20.970;2022-10-31T06:19:48;23.48;;;15.82;;
39074;SDS011;24826;52.070;20.970;2022-10-31T06:22:32;20.58;;;14.35;;
39074;SDS011;24826;52.070;20.970;2022-10-31T06:25:17;20.67;;;13.48;;
39074;SDS011;24826;52.070;20.970;2022-10-31T06:28:01;19.58;;;13.20;;
39074;SDS011;24826;52.070;20.970;2022-10-31T06:30:45;21.08;;;13.88;;
39074;SDS011;24826;52.070;20.970;2022-10-31T06:33:30;19.17;;;12.65;;
39074;SDS011;24826;52.070;20.970;2022-10-31T06:36:14;19.33;;;13.00;;
39074;SDS011;24826;52.070;20.970;2022-10-31T06:38:59;21.38;;;13.38;;
39074;SDS011;24826;52.070;20.970;2022-10-31T06:41:46;20.65;;;12.63;;
39074;SDS011;24826;52.070;20.970;2022-10-31T06:44:31;18.20;;;12.32;;
39074;SDS011;24826;52.070;20.970;2022-10-31T06:47:16;17.15;;;12.02;;
39074;SDS011;24826;52.070;20.970;2022-10-31T06:50:00;14.45;;;11.07;;
39074;SDS011;24826;52.070;20.970;2022-10-31T06:52:49;17.50;;;12.00;;
39074;SDS011;24826;52.070;20.970;2022-10-31T06:55:37;17.80;;;12.07;;
39074;SDS011;24826;52.070;20.970;2022-10-31T06:58:21;16.85;;;10.68;;
39074;SDS011;24826;52.070;20.970;2022-10-31T07:01:05;16.38;;;10.90;;
39074;SDS011;24826;52.070;20.970;2022-10-31T07:03:50;17.48;;;10.93;;
39074;SDS011;24826;52.070;20.970;2022-10-31T07:06:34;13.68;;;10.30;;
39074;SDS011;24826;52.070;20.970;2022-10-31T07:09:19;12.68;;;9.63;;
39074;SDS011;24826;52.070;20.970;2022-10-31T07:12:03;15.10;;;11.02;;
39074;SDS011;24826;52.070;20.970;2022-10-31T07:14:48;14.68;;;10.32;;
39074;SDS011;24826;52.070;20.970;2022-10-31T07:17:32;13.65;;;10.55;;
39074;SDS011;24826;52.070;20.970;2022-10-31T07:20:16;14.85;;;10.57;;
39074;SDS011;24826;52.070;20.970;2022-10-31T07:23:00;15.52;;;10.45;;
39074;SDS011;24826;52.070;20.970;2022-10-31T07:25:45;15.35;;;10.65;;
39074;SDS011;24826;52.070;20.970;2022-10-31T07:28:29;13.35;;;10.00;;
39074;SDS011;24826;52.070;20.970;2022-10-31T07:31:14;13.93;;;10.48;;
39074;SDS011;24826;52.070;20.970;2022-10-31T07:33:58;13.88;;;10.23;;
39074;SDS011;24826;52.070;20.970;2022-10-31T07:36:43;13.90;;;10.38;;
39074;SDS011;24826;52.070;20.970;2022-10-31T07:39:27;15.55;;;10.10;;
39074;SDS011;24826;52.070;20.970;2022-10-31T07:42:11;14.57;;;10.13;;
39074;SDS011;24826;52.070;20.970;2022-10-31T07:44:55;15.32;;;11.07;;
39074;SDS011;24826;52.070;20.970;2022-10-31T07:47:44;14.30;;;10.55;;
39074;SDS011;24826;52.070;20.970;2022-10-31T07:50:33;16.50;;;11.70;;
39074;SDS011;24826;52.070;20.970;2022-10-31T07:53:20;16.63;;;11.10;;
39074;SDS011;24826;52.070;20.970;2022-10-31T07:56:05;15.48;;;10.50;;
39074;SDS011;24826;52.070;20.970;2022-10-31T07:58:49;14.80;;;11.10;;
39074;SDS011;24826;52.070;20.970;2022-10-31T08:01:33;16.38;;;12.27;;
39074;SDS011;24826;52.070;20.970;2022-10-31T08:04:18;15.77;;;12.98;;
39074;SDS011;24826;52.070;20.970;2022-10-31T08:07:02;19.48;;;14.30;;
39074;SDS011;24826;52.070;20.970;2022-10-31T08:09:47;20.30;;;15.07;;
39074;SDS011;24826;52.070;20.970;2022-10-31T08:12:31;20.75;;;13.73;;
39074;SDS011;24826;52.070;20.970;2022-10-31T08:15:15;19.00;;;13.88;;
39074;SDS011;24826;52.070;20.970;2022-10-31T08:17:59;20.13;;;14.38;;
39074;SDS011;24826;52.070;20.970;2022-10-31T08:20:44;22.83;;;15.10;;
39074;SDS011;24826;52.070;20.970;2022-10-31T08:23:28;23.33;;;15.85;;
39074;SDS011;24826;52.070;20.970;2022-10-31T08:26:12;24.05;;;17.02;;
39074;SDS011;24826;52.070;20.970;2022-10-31T08:28:56;25.90;;;16.63;;
39074;SDS011;24826;52.070;20.970;2022-10-31T08:31:42;27.30;;;17.35;;
39074;SDS011;24826;52.070;20.970;2022-10-31T08:34:26;29.10;;;18.95;;
39074;SDS011;24826;52.070;20.970;2022-10-31T08:37:10;31.55;;;19.02;;
39074;SDS011;24826;52.070;20.970;2022-10-31T08:39:55;27.08;;;18.63;;
39074;SDS011;24826;52.070;20.970;2022-10-31T08:42:39;33.30;;;19.98;;
39074;SDS011;24826;52.070;20.970;2022-10-31T08:45:24;34.55;;;21.73;;
39074;SDS011;24826;52.070;20.970;2022-10-31T08:48:09;32.40;;;22.23;;
39074;SDS011;24826;52.070;20.970;2022-10-31T08:50:56;37.03;;;23.20;;
39074;SDS011;24826;52.070;20.970;2022-10-31T08:53:42;36.63;;;23.67;;
39074;SDS011;24826;52.070;20.970;2022-10-31T08:56:26;33.22;;;23.83;;
39074;SDS011;24826;52.070;20.970;2022-10-31T08:59:10;36.38;;;23.83;;
39074;SDS011;24826;52.070;20.970;2022-10-31T09:01:54;37.28;;;23.75;;
39074;SDS011;24826;52.070;20.970;2022-10-31T09:04:39;36.17;;;24.77;;
39074;SDS011;24826;52.070;20.970;2022-10-31T09:07:23;39.15;;;26.42;;
39074;SDS011;24826;52.070;20.970;2022-10-31T09:10:08;44.25;;;29.00;;
39074;SDS011;24826;52.070;20.970;2022-10-31T09:12:59;39.88;;;26.73;;
39074;SDS011;24826;52.070;20.970;2022-10-31T09:15:46;37.47;;;24.83;;
39074;SDS011;24826;52.070;20.970;2022-10-31T09:18:32;36.78;;;24.60;;
39074;SDS011;24826;52.070;20.970;2022-10-31T09:21:16;38.47;;;26.00;;
39074;SDS011;24826;52.070;20.970;2022-10-31T09:24:00;36.03;;;23.85;;
39074;SDS011;24826;52.070;20.970;2022-10-31T09:26:45;37.00;;;23.58;;
39074;SDS011;24826;52.070;20.970;2022-10-31T09:29:29;41.53;;;23.98;;
39074;SDS011;24826;52.070;20.970;2022-10-31T09:32:13;37.45;;;23.67;;
39074;SDS011;24826;52.070;20.970;2022-10-31T09:34:58;35.50;;;24.17;;
39074;SDS011;24826;52.070;20.970;2022-10-31T09:37:42;39.67;;;23.83;;
39074;SDS011;24826;52.070;20.970;2022-10-31T09:40:36;37.50;;;23.02;;
39074;SDS011;24826;52.070;20.970;2022-10-31T09:52:33;33.00;;;21.33;;
39074;SDS011;24826;52.070;20.970;2022-10-31T09:55:27;35.58;;;21.75;;
39074;SDS011;24826;52.070;20.970;2022-10-31T09:58:20;32.80;;;22.92;;
39074;SDS011;24826;52.070;20.970;2022-10-31T10:01:09;32.58;;;22.60;;
39074;SDS011;24826;52.070;20.970;2022-10-31T10:07:29;36.13;;;22.83;;
39074;SDS011;24826;52.070;20.970;2022-10-31T10:16:40;38.38;;;22.35;;
39074;SDS011;24826;52.070;20.970;2022-10-31T10:22:47;35.08;;;22.35;;
39074;SDS011;24826;52.070;20.970;2022-10-31T10:25:37;33.30;;;21.55;;
39074;SDS011;24826;52.070;20.970;2022-10-31T10:28:33;38.58;;;22.70;;
39074;SDS011;24826;52.070;20.970;2022-10-31T10:31:24;34.97;;;21.92;;
39074;SDS011;24826;52.070;20.970;2022-10-31T10:40:16;37.83;;;23.67;;
39074;SDS011;24826;52.070;20.970;2022-10-31T10:49:19;39.60;;;24.60;;
39074;SDS011;24826;52.070;20.970;2022-10-31T10:58:20;35.00;;;22.90;;
39074;SDS011;24826;52.070;20.970;2022-10-31T11:01:09;38.22;;;23.55;;
39074;SDS011;24826;52.070;20.970;2022-10-31T11:03:56;38.17;;;24.00;;
39074;SDS011;24826;52.070;20.970;2022-10-31T11:06:40;39.67;;;25.42;;
39074;SDS011;24826;52.070;20.970;2022-10-31T11:09:25;41.50;;;25.10;;
39074;SDS011;24826;52.070;20.970;2022-10-31T11:12:11;42.13;;;24.60;;
39074;SDS011;24826;52.070;20.970;2022-10-31T11:15:17;45.28;;;26.92;;
39074;SDS011;24826;52.070;20.970;2022-10-31T11:18:03;40.85;;;25.15;;
39074;SDS011;24826;52.070;20.970;2022-10-31T11:20:50;45.58;;;26.83;;
39074;SDS011;24826;52.070;20.970;2022-10-31T11:23:37;44.50;;;27.52;;
39074;SDS011;24826;52.070;20.970;2022-10-31T11:26:21;45.33;;;26.88;;
39074;SDS011;24826;52.070;20.970;2022-10-31T11:31:59;50.60;;;28.88;;
39074;SDS011;24826;52.070;20.970;2022-10-31T11:34:45;46.20;;;27.83;;
39074;SDS011;24826;52.070;20.970;2022-10-31T11:37:34;46.60;;;28.05;;
39074;SDS011;24826;52.070;20.970;2022-10-31T11:40:25;44.25;;;27.45;;
39074;SDS011;24826;52.070;20.970;2022-10-31T11:43:15;46.67;;;27.73;;
39074;SDS011;24826;52.070;20.970;2022-10-31T11:46:09;46.90;;;28.35;;
39074;SDS011;24826;52.070;20.970;2022-10-31T11:48:55;46.30;;;27.42;;
39074;SDS011;24826;52.070;20.970;2022-10-31T11:51:40;45.03;;;27.17;;
39074;SDS011;24826;52.070;20.970;2022-10-31T11:54:32;44.83;;;27.10;;
39074;SDS011;24826;52.070;20.970;2022-10-31T11:57:25;42.08;;;27.33;;
39074;SDS011;24826;52.070;20.970;2022-10-31T12:00:37;45.63;;;26.77;;
39074;SDS011;24826;52.070;20.970;2022-10-31T12:03:32;41.35;;;25.65;;
39074;SDS011;24826;52.070;20.970;2022-10-31T12:06:27;43.55;;;25.55;;
39074;SDS011;24826;52.070;20.970;2022-10-31T12:09:29;36.47;;;24.58;;
39074;SDS011;24826;52.070;20.970;2022-10-31T12:12:33;43.28;;;26.33;;
39074;SDS011;24826;52.070;20.970;2022-10-31T12:15:33;44.97;;;26.90;;
39074;SDS011;24826;52.070;20.970;2022-10-31T12:18:37;40.17;;;25.45;;
39074;SDS011;24826;52.070;20.970;2022-10-31T12:35:48;48.90;;;28.90;;
39074;SDS011;24826;52.070;20.970;2022-10-31T12:38:47;44.55;;;27.40;;
39074;SDS011;24826;52.070;20.970;2022-10-31T12:41:44;46.00;;;28.13;;
39074;SDS011;24826;52.070;20.970;2022-10-31T12:44:49;42.28;;;26.23;;
39074;SDS011;24826;52.070;20.970;2022-10-31T12:57:27;42.67;;;27.13;;
39074;SDS011;24826;52.070;20.970;2022-10-31T13:00:17;40.70;;;25.75;;
39074;SDS011;24826;52.070;20.970;2022-10-31T13:06:16;51.72;;;28.30;;
39074;SDS011;24826;52.070;20.970;2022-10-31T13:09:06;44.90;;;26.65;;
39074;SDS011;24826;52.070;20.970;2022-10-31T13:11:58;47.87;;;27.93;;
39074;SDS011;24826;52.070;20.970;2022-10-31T13:14:50;44.78;;;27.42;;
39074;SDS011;24826;52.070;20.970;2022-10-31T13:17:48;50.10;;;26.80;;
39074;SDS011;24826;52.070;20.970;2022-10-31T13:20:41;48.92;;;28.38;;
39074;SDS011;24826;52.070;20.970;2022-10-31T13:23:29;43.60;;;26.00;;
39074;SDS011;24826;52.070;20.970;2022-10-31T13:26:21;41.83;;;25.45;;
39074;SDS011;24826;52.070;20.970;2022-10-31T13:32:11;44.00;;;25.10;;
39074;SDS011;24826;52.070;20.970;2022-10-31T13:34:56;41.65;;;26.30;;
39074;SDS011;24826;52.070;20.970;2022-10-31T13:37:44;46.42;;;26.63;;
39074;SDS011;24826;52.070;20.970;2022-10-31T13:43:33;52.45;;;28.30;;
39074;SDS011;24826;52.070;20.970;2022-10-31T13:46:41;46.00;;;27.15;;
39074;SDS011;24826;52.070;20.970;2022-10-31T13:52:22;45.85;;;25.08;;
39074;SDS011;24826;52.070;20.970;2022-10-31T13:55:33;47.38;;;26.77;;
39074;SDS011;24826;52.070;20.970;2022-10-31T13:58:25;51.17;;;27.85;;
39074;SDS011;24826;52.070;20.970;2022-10-31T14:10:05;52.25;;;27.60;;
39074;SDS011;24826;52.070;20.970;2022-10-31T14:13:07;59.80;;;26.80;;
39074;SDS011;24826;52.070;20.970;2022-10-31T14:16:00;51.40;;;28.45;;
39074;SDS011;24826;52.070;20.970;2022-10-31T14:18:49;50.83;;;28.17;;
39074;SDS011;24826;52.070;20.970;2022-10-31T14:21:41;55.75;;;29.77;;
39074;SDS011;24826;52.070;20.970;2022-10-31T14:24:33;50.53;;;28.98;;
39074;SDS011;24826;52.070;20.970;2022-10-31T14:30:15;57.65;;;30.00;;
39074;SDS011;24826;52.070;20.970;2022-10-31T14:33:04;57.45;;;28.73;;
39074;SDS011;24826;52.070;20.970;2022-10-31T14:39:02;52.47;;;28.70;;
39074;SDS011;24826;52.070;20.970;2022-10-31T14:48:11;53.75;;;28.17;;
39074;SDS011;24826;52.070;20.970;2022-10-31T14:50:57;58.60;;;29.73;;
39074;SDS011;24826;52.070;20.970;2022-10-31T14:53:48;57.75;;;30.15;;
39074;SDS011;24826;52.070;20.970;2022-10-31T14:56:34;57.00;;;28.10;;
39074;SDS011;24826;52.070;20.970;2022-10-31T14:59:23;55.67;;;30.23;;
39074;SDS011;24826;52.070;20.970;2022-10-31T15:02:27;61.90;;;30.85;;
39074;SDS011;24826;52.070;20.970;2022-10-31T15:05:18;58.17;;;29.45;;
39074;SDS011;24826;52.070;20.970;2022-10-31T15:08:04;61.13;;;29.48;;
39074;SDS011;24826;52.070;20.970;2022-10-31T15:10:48;63.53;;;30.27;;
39074;SDS011;24826;52.070;20.970;2022-10-31T15:13:33;61.38;;;30.63;;
39074;SDS011;24826;52.070;20.970;2022-10-31T15:16:19;54.28;;;28.38;;
39074;SDS011;24826;52.070;20.970;2022-10-31T15:19:07;55.78;;;28.92;;
39074;SDS011;24826;52.070;20.970;2022-10-31T15:21:56;57.20;;;29.60;;
39074;SDS011;24826;52.070;20.970;2022-10-31T15:24:41;57.85;;;30.38;;
39074;SDS011;24826;52.070;20.970;2022-10-31T15:27:26;53.33;;;28.00;;
39074;SDS011;24826;52.070;20.970;2022-10-31T15:30:19;53.72;;;29.85;;
39074;SDS011;24826;52.070;20.970;2022-10-31T15:33:18;56.03;;;28.55;;
39074;SDS011;24826;52.070;20.970;2022-10-31T15:36:03;54.33;;;29.13;;
39074;SDS011;24826;52.070;20.970;2022-10-31T15:38:48;63.10;;;30.75;;
39074;SDS011;24826;52.070;20.970;2022-10-31T15:41:35;64.38;;;30.50;;
39074;SDS011;24826;52.070;20.970;2022-10-31T15:47:19;62.53;;;31.83;;
39074;SDS011;24826;52.070;20.970;2022-10-31T15:50:16;70.15;;;31.55;;
39074;SDS011;24826;52.070;20.970;2022-10-31T15:53:43;69.78;;;32.08;;
39074;SDS011;24826;52.070;20.970;2022-10-31T15:56:28;67.05;;;33.30;;
39074;SDS011;24826;52.070;20.970;2022-10-31T15:59:22;71.07;;;33.75;;
39074;SDS011;24826;52.070;20.970;2022-10-31T16:02:11;77.25;;;34.75;;
39074;SDS011;24826;52.070;20.970;2022-10-31T16:04:58;79.30;;;34.88;;
39074;SDS011;24826;52.070;20.970;2022-10-31T16:07:48;80.93;;;35.90;;
39074;SDS011;24826;52.070;20.970;2022-10-31T16:10:34;74.70;;;36.13;;
39074;SDS011;24826;52.070;20.970;2022-10-31T16:13:26;81.05;;;35.65;;
39074;SDS011;24826;52.070;20.970;2022-10-31T16:16:13;74.57;;;33.90;;
39074;SDS011;24826;52.070;20.970;2022-10-31T16:19:01;83.85;;;36.20;;
39074;SDS011;24826;52.070;20.970;2022-10-31T16:21:49;71.60;;;33.80;;
39074;SDS011;24826;52.070;20.970;2022-10-31T16:27:50;71.15;;;32.83;;
39074;SDS011;24826;52.070;20.970;2022-10-31T16:30:38;67.05;;;30.58;;
39074;SDS011;24826;52.070;20.970;2022-10-31T16:33:30;66.30;;;31.67;;
39074;SDS011;24826;52.070;20.970;2022-10-31T16:36:33;68.65;;;31.33;;
39074;SDS011;24826;52.070;20.970;2022-10-31T16:39:22;69.68;;;32.13;;
39074;SDS011;24826;52.070;20.970;2022-10-31T16:42:07;67.78;;;32.85;;
39074;SDS011;24826;52.070;20.970;2022-10-31T16:44:52;69.68;;;32.53;;
39074;SDS011;24826;52.070;20.970;2022-10-31T16:47:36;64.32;;;31.23;;
39074;SDS011;24826;52.070;20.970;2022-10-31T16:50:22;58.38;;;30.13;;
39074;SDS011;24826;52.070;20.970;2022-10-31T16:53:08;59.70;;;29.52;;
39074;SDS011;24826;52.070;20.970;2022-10-31T16:55:59;62.78;;;30.58;;
39074;SDS011;24826;52.070;20.970;2022-10-31T16:58:46;62.22;;;30.55;;
39074;SDS011;24826;52.070;20.970;2022-10-31T17:01:30;58.38;;;29.40;;
39074;SDS011;24826;52.070;20.970;2022-10-31T17:04:15;60.95;;;29.58;;
39074;SDS011;24826;52.070;20.970;2022-10-31T17:06:59;59.45;;;28.70;;
39074;SDS011;24826;52.070;20.970;2022-10-31T17:09:44;57.55;;;30.23;;
39074;SDS011;24826;52.070;20.970;2022-10-31T17:12:28;60.33;;;29.80;;
39074;SDS011;24826;52.070;20.970;2022-10-31T17:18:02;63.22;;;31.75;;
39074;SDS011;24826;52.070;20.970;2022-10-31T17:20:47;63.80;;;31.60;;
39074;SDS011;24826;52.070;20.970;2022-10-31T17:23:32;63.40;;;30.05;;
39074;SDS011;24826;52.070;20.970;2022-10-31T17:26:17;63.65;;;30.38;;
39074;SDS011;24826;52.070;20.970;2022-10-31T17:29:01;58.90;;;27.83;;
39074;SDS011;24826;52.070;20.970;2022-10-31T17:31:46;60.08;;;28.77;;
39074;SDS011;24826;52.070;20.970;2022-10-31T17:34:32;59.80;;;29.33;;
39074;SDS011;24826;52.070;20.970;2022-10-31T17:37:17;64.20;;;29.73;;
39074;SDS011;24826;52.070;20.970;2022-10-31T17:40:01;62.55;;;29.33;;
39074;SDS011;24826;52.070;20.970;2022-10-31T17:42:50;59.25;;;29.65;;
39074;SDS011;24826;52.070;20.970;2022-10-31T17:45:39;58.40;;;28.27;;
39074;SDS011;24826;52.070;20.970;2022-10-31T17:48:24;60.80;;;29.38;;
39074;SDS011;24826;52.070;20.970;2022-10-31T17:51:09;67.63;;;30.52;;
39074;SDS011;24826;52.070;20.970;2022-10-31T17:53:53;65.28;;;30.75;;
39074;SDS011;24826;52.070;20.970;2022-10-31T17:56:37;62.17;;;29.00;;
39074;SDS011;24826;52.070;20.970;2022-10-31T17:59:22;59.28;;;28.83;;
39074;SDS011;24826;52.070;20.970;2022-10-31T18:02:10;65.32;;;30.05;;
39074;SDS011;24826;52.070;20.970;2022-10-31T18:04:54;64.25;;;30.05;;
39074;SDS011;24826;52.070;20.970;2022-10-31T18:07:39;64.00;;;30.27;;
39074;SDS011;24826;52.070;20.970;2022-10-31T18:10:23;66.97;;;30.80;;
39074;SDS011;24826;52.070;20.970;2022-10-31T18:13:07;65.00;;;30.33;;
39074;SDS011;24826;52.070;20.970;2022-10-31T18:15:51;60.45;;;29.05;;